sensor_id;sensor_type;location;lat;lon;timestamp;P1;durP1;ratioP1;P2;durP2;ratioP2
10643;SDS011;5370;50.132;8.626;2023-04-25T00:02:11;13.20;;;8.27;;
10643;SDS011;5370;50.132;8.626;2023-04-25T00:04:38;11.47;;;9.10;;
10643;SDS011;5370;50.132;8.626;2023-04-25T00:07:03;11.27;;;8.93;;
10643;SDS011;5370;50.132;8.626;2023-04-25T00:09:29;10.23;;;8.67;;
10643;SDS011;5370;50.132;8.626;2023-04-25T00:11:55;10.03;;;8.60;;
10643;SDS011;5370;50.132;8.626;2023-04-25T00:14:21;11.67;;;9.00;;
10643;SDS011;5370;50.132;8.626;2023-04-25T00:16:47;10.80;;;8.37;;
10643;SDS011;5370;50.132;8.626;2023-04-25T00:19:13;10.43;;;9.33;;
10643;SDS011;5370;50.132;8.626;2023-04-25T00:21:39;12.70;;;9.40;;
10643;SDS011;5370;50.132;8.626;2023-04-25T00:24:07;12.73;;;9.30;;
10643;SDS011;5370;50.132;8.626;2023-04-25T00:26:33;12.43;;;9.70;;
10643;SDS011;5370;50.132;8.626;2023-04-25T00:29:00;11.77;;;9.20;;
10643;SDS011;5370;50.132;8.626;2023-04-25T00:31:26;13.77;;;10.20;;
10643;SDS011;5370;50.132;8.626;2023-04-25T00:33:51;13.17;;;9.87;;
10643;SDS011;5370;50.132;8.626;2023-04-25T00:36:18;11.93;;;10.40;;
10643;SDS011;5370;50.132;8.626;2023-04-25T00:38:43;10.30;;;9.07;;
10643;SDS011;5370;50.132;8.626;2023-04-25T00:41:09;12.87;;;9.97;;
10643;SDS011;5370;50.132;8.626;2023-04-25T00:43:36;15.13;;;10.57;;
10643;SDS011;5370;50.132;8.626;2023-04-25T00:46:01;11.90;;;9.83;;
10643;SDS011;5370;50.132;8.626;2023-04-25T00:48:27;10.80;;;8.53;;
10643;SDS011;5370;50.132;8.626;2023-04-25T00:50:54;11.80;;;8.97;;
10643;SDS011;5370;50.132;8.626;2023-04-25T00:53:22;11.33;;;9.07;;
10643;SDS011;5370;50.132;8.626;2023-04-25T00:55:49;10.47;;;9.27;;
10643;SDS011;5370;50.132;8.626;2023-04-25T00:58:16;9.50;;;8.50;;
10643;SDS011;5370;50.132;8.626;2023-04-25T01:00:43;10.47;;;8.33;;
10643;SDS011;5370;50.132;8.626;2023-04-25T01:03:10;10.67;;;8.70;;
10643;SDS011;5370;50.132;8.626;2023-04-25T01:05:36;11.00;;;8.87;;
10643;SDS011;5370;50.132;8.626;2023-04-25T01:08:02;13.10;;;9.20;;
10643;SDS011;5370;50.132;8.626;2023-04-25T01:10:28;11.47;;;8.03;;
10643;SDS011;5370;50.132;8.626;2023-04-25T01:12:53;10.57;;;8.07;;
10643;SDS011;5370;50.132;8.626;2023-04-25T01:15:19;11.00;;;8.00;;
10643;SDS011;5370;50.132;8.626;2023-04-25T01:17:45;9.87;;;6.73;;
10643;SDS011;5370;50.132;8.626;2023-04-25T01:20:11;7.00;;;5.90;;
10643;SDS011;5370;50.132;8.626;2023-04-25T01:22:38;6.27;;;5.20;;
10643;SDS011;5370;50.132;8.626;2023-04-25T01:25:04;5.93;;;5.00;;
10643;SDS011;5370;50.132;8.626;2023-04-25T01:27:31;6.83;;;5.40;;
10643;SDS011;5370;50.132;8.626;2023-04-25T01:29:57;7.60;;;5.80;;
10643;SDS011;5370;50.132;8.626;2023-04-25T01:32:24;7.20;;;5.37;;
10643;SDS011;5370;50.132;8.626;2023-04-25T01:34:50;7.00;;;5.70;;
10643;SDS011;5370;50.132;8.626;2023-04-25T01:37:16;6.63;;;5.77;;
10643;SDS011;5370;50.132;8.626;2023-04-25T01:39:42;8.33;;;6.07;;
10643;SDS011;5370;50.132;8.626;2023-04-25T01:42:08;6.37;;;5.60;;
10643;SDS011;5370;50.132;8.626;2023-04-25T01:44:33;6.43;;;5.50;;
10643;SDS011;5370;50.132;8.626;2023-04-25T01:46:59;7.10;;;5.50;;
10643;SDS011;5370;50.132;8.626;2023-04-25T01:49:25;7.17;;;5.27;;
10643;SDS011;5370;50.132;8.626;2023-04-25T01:51:50;6.20;;;5.60;;
10643;SDS011;5370;50.132;8.626;2023-04-25T01:54:16;7.37;;;5.53;;
10643;SDS011;5370;50.132;8.626;2023-04-25T01:56:43;11.87;;;6.17;;
10643;SDS011;5370;50.132;8.626;2023-04-25T01:59:14;5.60;;;5.10;;
10643;SDS011;5370;50.132;8.626;2023-04-25T02:01:40;5.80;;;5.30;;
10643;SDS011;5370;50.132;8.626;2023-04-25T02:04:05;6.73;;;6.03;;
10643;SDS011;5370;50.132;8.626;2023-04-25T02:06:31;7.73;;;5.43;;
10643;SDS011;5370;50.132;8.626;2023-04-25T02:08:57;6.00;;;5.50;;
10643;SDS011;5370;50.132;8.626;2023-04-25T02:11:22;6.13;;;4.93;;
10643;SDS011;5370;50.132;8.626;2023-04-25T02:13:48;7.37;;;5.57;;
10643;SDS011;5370;50.132;8.626;2023-04-25T02:16:13;9.63;;;6.13;;
10643;SDS011;5370;50.132;8.626;2023-04-25T02:18:39;9.50;;;6.20;;
10643;SDS011;5370;50.132;8.626;2023-04-25T02:21:04;6.77;;;5.70;;
10643;SDS011;5370;50.132;8.626;2023-04-25T02:23:30;8.10;;;6.50;;
10643;SDS011;5370;50.132;8.626;2023-04-25T02:25:56;9.00;;;6.40;;
10643;SDS011;5370;50.132;8.626;2023-04-25T02:28:23;7.93;;;6.00;;
10643;SDS011;5370;50.132;8.626;2023-04-25T02:30:49;7.73;;;7.03;;
10643;SDS011;5370;50.132;8.626;2023-04-25T02:33:14;7.93;;;6.30;;
10643;SDS011;5370;50.132;8.626;2023-04-25T02:35:41;9.33;;;6.63;;
10643;SDS011;5370;50.132;8.626;2023-04-25T02:38:07;6.90;;;6.20;;
10643;SDS011;5370;50.132;8.626;2023-04-25T02:40:32;8.83;;;6.70;;
10643;SDS011;5370;50.132;8.626;2023-04-25T02:42:58;7.63;;;6.83;;
10643;SDS011;5370;50.132;8.626;2023-04-25T02:45:23;7.83;;;6.90;;
10643;SDS011;5370;50.132;8.626;2023-04-25T02:47:49;9.27;;;7.43;;
10643;SDS011;5370;50.132;8.626;2023-04-25T02:50:15;8.60;;;7.20;;
10643;SDS011;5370;50.132;8.626;2023-04-25T02:52:40;9.00;;;7.17;;
10643;SDS011;5370;50.132;8.626;2023-04-25T02:55:06;8.40;;;7.30;;
10643;SDS011;5370;50.132;8.626;2023-04-25T02:57:31;11.67;;;8.60;;
10643;SDS011;5370;50.132;8.626;2023-04-25T02:59:57;8.90;;;7.47;;
10643;SDS011;5370;50.132;8.626;2023-04-25T03:02:22;10.00;;;8.27;;
10643;SDS011;5370;50.132;8.626;2023-04-25T03:04:48;12.87;;;7.87;;
10643;SDS011;5370;50.132;8.626;2023-04-25T03:07:14;12.83;;;7.93;;
10643;SDS011;5370;50.132;8.626;2023-04-25T03:09:39;10.43;;;7.97;;
10643;SDS011;5370;50.132;8.626;2023-04-25T03:12:05;12.27;;;8.40;;
10643;SDS011;5370;50.132;8.626;2023-04-25T03:14:30;11.77;;;8.33;;
10643;SDS011;5370;50.132;8.626;2023-04-25T03:16:56;13.60;;;8.63;;
10643;SDS011;5370;50.132;8.626;2023-04-25T03:19:21;13.97;;;8.37;;
10643;SDS011;5370;50.132;8.626;2023-04-25T03:21:47;11.80;;;8.70;;
10643;SDS011;5370;50.132;8.626;2023-04-25T03:24:12;9.13;;;7.93;;
10643;SDS011;5370;50.132;8.626;2023-04-25T03:26:39;12.37;;;8.17;;
10643;SDS011;5370;50.132;8.626;2023-04-25T03:29:04;9.87;;;8.37;;
10643;SDS011;5370;50.132;8.626;2023-04-25T03:31:30;12.87;;;7.73;;
10643;SDS011;5370;50.132;8.626;2023-04-25T03:33:56;14.87;;;8.67;;
10643;SDS011;5370;50.132;8.626;2023-04-25T03:36:21;12.67;;;8.30;;
10643;SDS011;5370;50.132;8.626;2023-04-25T03:38:47;12.73;;;8.00;;
10643;SDS011;5370;50.132;8.626;2023-04-25T03:41:13;9.60;;;7.57;;
10643;SDS011;5370;50.132;8.626;2023-04-25T03:43:38;10.40;;;7.53;;
10643;SDS011;5370;50.132;8.626;2023-04-25T03:46:04;10.43;;;7.23;;
10643;SDS011;5370;50.132;8.626;2023-04-25T03:48:30;9.30;;;7.97;;
10643;SDS011;5370;50.132;8.626;2023-04-25T03:50:55;12.30;;;8.17;;
10643;SDS011;5370;50.132;8.626;2023-04-25T03:53:21;12.40;;;8.13;;
10643;SDS011;5370;50.132;8.626;2023-04-25T03:55:46;11.63;;;8.93;;
10643;SDS011;5370;50.132;8.626;2023-04-25T03:58:12;10.83;;;8.10;;
10643;SDS011;5370;50.132;8.626;2023-04-25T04:00:37;11.37;;;8.20;;
10643;SDS011;5370;50.132;8.626;2023-04-25T04:03:03;10.47;;;8.40;;
10643;SDS011;5370;50.132;8.626;2023-04-25T04:05:29;14.10;;;8.70;;
10643;SDS011;5370;50.132;8.626;2023-04-25T04:07:54;11.43;;;8.23;;
10643;SDS011;5370;50.132;8.626;2023-04-25T04:10:20;10.37;;;7.57;;
10643;SDS011;5370;50.132;8.626;2023-04-25T04:12:46;11.87;;;8.03;;
10643;SDS011;5370;50.132;8.626;2023-04-25T04:15:12;9.93;;;7.97;;
10643;SDS011;5370;50.132;8.626;2023-04-25T04:17:38;12.00;;;7.77;;
10643;SDS011;5370;50.132;8.626;2023-04-25T04:20:04;11.40;;;8.80;;
10643;SDS011;5370;50.132;8.626;2023-04-25T04:22:31;12.37;;;8.83;;
10643;SDS011;5370;50.132;8.626;2023-04-25T04:24:56;14.70;;;9.13;;
10643;SDS011;5370;50.132;8.626;2023-04-25T04:27:22;14.40;;;7.80;;
10643;SDS011;5370;50.132;8.626;2023-04-25T04:29:48;11.73;;;7.67;;
10643;SDS011;5370;50.132;8.626;2023-04-25T04:32:14;11.30;;;7.40;;
10643;SDS011;5370;50.132;8.626;2023-04-25T04:34:40;14.60;;;7.37;;
10643;SDS011;5370;50.132;8.626;2023-04-25T04:37:06;17.03;;;6.87;;
10643;SDS011;5370;50.132;8.626;2023-04-25T04:39:32;12.57;;;6.47;;
10643;SDS011;5370;50.132;8.626;2023-04-25T04:41:58;12.33;;;5.60;;
10643;SDS011;5370;50.132;8.626;2023-04-25T04:44:26;17.93;;;6.50;;
10643;SDS011;5370;50.132;8.626;2023-04-25T04:46:53;12.17;;;6.70;;
10643;SDS011;5370;50.132;8.626;2023-04-25T04:49:19;14.73;;;5.77;;
10643;SDS011;5370;50.132;8.626;2023-04-25T04:51:44;10.23;;;5.87;;
10643;SDS011;5370;50.132;8.626;2023-04-25T04:54:10;9.03;;;6.07;;
10643;SDS011;5370;50.132;8.626;2023-04-25T04:56:35;12.20;;;6.20;;
10643;SDS011;5370;50.132;8.626;2023-04-25T04:59:01;14.33;;;6.93;;
10643;SDS011;5370;50.132;8.626;2023-04-25T05:01:27;8.47;;;5.53;;
10643;SDS011;5370;50.132;8.626;2023-04-25T05:03:54;13.37;;;6.53;;
10643;SDS011;5370;50.132;8.626;2023-04-25T05:06:25;15.33;;;6.50;;
10643;SDS011;5370;50.132;8.626;2023-04-25T05:08:54;9.87;;;5.83;;
10643;SDS011;5370;50.132;8.626;2023-04-25T05:11:20;13.33;;;6.43;;
10643;SDS011;5370;50.132;8.626;2023-04-25T05:13:45;11.70;;;6.67;;
10643;SDS011;5370;50.132;8.626;2023-04-25T05:16:11;13.83;;;7.20;;
10643;SDS011;5370;50.132;8.626;2023-04-25T05:18:38;15.23;;;7.10;;
10643;SDS011;5370;50.132;8.626;2023-04-25T05:21:04;12.30;;;7.17;;
10643;SDS011;5370;50.132;8.626;2023-04-25T05:23:30;9.93;;;6.10;;
10643;SDS011;5370;50.132;8.626;2023-04-25T05:25:57;11.07;;;7.03;;
10643;SDS011;5370;50.132;8.626;2023-04-25T05:28:22;12.97;;;6.40;;
10643;SDS011;5370;50.132;8.626;2023-04-25T05:30:48;11.93;;;5.73;;
10643;SDS011;5370;50.132;8.626;2023-04-25T05:33:13;21.27;;;6.43;;
10643;SDS011;5370;50.132;8.626;2023-04-25T05:35:40;10.73;;;6.10;;
10643;SDS011;5370;50.132;8.626;2023-04-25T05:38:05;10.80;;;5.57;;
10643;SDS011;5370;50.132;8.626;2023-04-25T05:40:31;11.20;;;5.73;;
10643;SDS011;5370;50.132;8.626;2023-04-25T05:42:57;7.37;;;4.47;;
10643;SDS011;5370;50.132;8.626;2023-04-25T05:45:22;9.50;;;4.47;;
10643;SDS011;5370;50.132;8.626;2023-04-25T05:47:48;8.20;;;5.30;;
10643;SDS011;5370;50.132;8.626;2023-04-25T05:50:13;11.53;;;4.53;;
10643;SDS011;5370;50.132;8.626;2023-04-25T05:52:39;7.63;;;4.40;;
10643;SDS011;5370;50.132;8.626;2023-04-25T05:55:05;6.90;;;4.20;;
10643;SDS011;5370;50.132;8.626;2023-04-25T05:57:30;11.57;;;5.00;;
10643;SDS011;5370;50.132;8.626;2023-04-25T05:59:56;4.00;;;3.50;;
10643;SDS011;5370;50.132;8.626;2023-04-25T06:02:21;8.77;;;4.27;;
10643;SDS011;5370;50.132;8.626;2023-04-25T06:04:50;7.20;;;3.47;;
10643;SDS011;5370;50.132;8.626;2023-04-25T06:07:16;6.23;;;3.13;;
10643;SDS011;5370;50.132;8.626;2023-04-25T06:09:42;8.57;;;3.63;;
10643;SDS011;5370;50.132;8.626;2023-04-25T06:12:08;5.53;;;3.10;;
10643;SDS011;5370;50.132;8.626;2023-04-25T06:14:34;6.40;;;3.17;;
10643;SDS011;5370;50.132;8.626;2023-04-25T06:16:59;3.47;;;2.60;;
10643;SDS011;5370;50.132;8.626;2023-04-25T06:19:31;5.57;;;2.80;;
10643;SDS011;5370;50.132;8.626;2023-04-25T06:22:00;3.87;;;2.57;;
10643;SDS011;5370;50.132;8.626;2023-04-25T06:24:27;4.68;;;2.60;;
10643;SDS011;5370;50.132;8.626;2023-04-25T06:26:52;4.10;;;2.40;;
10643;SDS011;5370;50.132;8.626;2023-04-25T06:29:18;4.30;;;2.50;;
10643;SDS011;5370;50.132;8.626;2023-04-25T06:31:44;3.70;;;2.50;;
10643;SDS011;5370;50.132;8.626;2023-04-25T06:34:09;8.32;;;2.55;;
10643;SDS011;5370;50.132;8.626;2023-04-25T06:36:35;6.22;;;2.42;;
10643;SDS011;5370;50.132;8.626;2023-04-25T06:39:01;4.00;;;2.53;;
10643;SDS011;5370;50.132;8.626;2023-04-25T06:41:27;4.65;;;2.70;;
10643;SDS011;5370;50.132;8.626;2023-04-25T06:43:52;5.10;;;1.95;;
10643;SDS011;5370;50.132;8.626;2023-04-25T06:46:18;3.53;;;2.15;;
10643;SDS011;5370;50.132;8.626;2023-04-25T06:48:43;3.15;;;2.08;;
10643;SDS011;5370;50.132;8.626;2023-04-25T06:51:09;6.43;;;2.20;;
10643;SDS011;5370;50.132;8.626;2023-04-25T06:53:35;5.60;;;1.92;;
10643;SDS011;5370;50.132;8.626;2023-04-25T06:56:00;3.67;;;2.30;;
10643;SDS011;5370;50.132;8.626;2023-04-25T06:58:26;7.30;;;2.70;;
10643;SDS011;5370;50.132;8.626;2023-04-25T07:00:51;4.05;;;2.65;;
10643;SDS011;5370;50.132;8.626;2023-04-25T07:03:17;4.13;;;1.90;;
10643;SDS011;5370;50.132;8.626;2023-04-25T07:05:42;4.95;;;2.28;;
10643;SDS011;5370;50.132;8.626;2023-04-25T07:08:08;4.20;;;2.30;;
10643;SDS011;5370;50.132;8.626;2023-04-25T07:10:33;3.45;;;2.20;;
10643;SDS011;5370;50.132;8.626;2023-04-25T07:13:00;4.75;;;2.35;;
10643;SDS011;5370;50.132;8.626;2023-04-25T07:15:25;4.25;;;2.40;;
10643;SDS011;5370;50.132;8.626;2023-04-25T07:17:51;4.00;;;2.05;;
10643;SDS011;5370;50.132;8.626;2023-04-25T07:20:16;3.60;;;2.00;;
10643;SDS011;5370;50.132;8.626;2023-04-25T07:22:42;6.70;;;2.22;;
10643;SDS011;5370;50.132;8.626;2023-04-25T07:25:07;8.80;;;4.68;;
10643;SDS011;5370;50.132;8.626;2023-04-25T07:27:33;14.85;;;6.43;;
10643;SDS011;5370;50.132;8.626;2023-04-25T07:29:59;10.73;;;5.00;;
10643;SDS011;5370;50.132;8.626;2023-04-25T07:32:25;9.45;;;5.43;;
10643;SDS011;5370;50.132;8.626;2023-04-25T07:34:51;7.07;;;3.75;;
10643;SDS011;5370;50.132;8.626;2023-04-25T07:37:17;7.70;;;3.55;;
10643;SDS011;5370;50.132;8.626;2023-04-25T07:39:43;7.40;;;3.58;;
10643;SDS011;5370;50.132;8.626;2023-04-25T07:42:11;7.70;;;3.83;;
10643;SDS011;5370;50.132;8.626;2023-04-25T07:44:36;6.47;;;3.90;;
10643;SDS011;5370;50.132;8.626;2023-04-25T07:47:06;9.85;;;3.90;;
10643;SDS011;5370;50.132;8.626;2023-04-25T07:49:33;6.40;;;3.85;;
10643;SDS011;5370;50.132;8.626;2023-04-25T07:52:02;9.88;;;4.55;;
10643;SDS011;5370;50.132;8.626;2023-04-25T07:54:28;7.32;;;3.53;;
10643;SDS011;5370;50.132;8.626;2023-04-25T07:56:54;4.57;;;3.00;;
10643;SDS011;5370;50.132;8.626;2023-04-25T07:59:20;5.43;;;3.38;;
10643;SDS011;5370;50.132;8.626;2023-04-25T08:01:46;5.80;;;3.22;;
10643;SDS011;5370;50.132;8.626;2023-04-25T08:04:12;5.32;;;2.95;;
10643;SDS011;5370;50.132;8.626;2023-04-25T08:06:37;5.65;;;3.30;;
10643;SDS011;5370;50.132;8.626;2023-04-25T08:09:03;4.22;;;3.10;;
10643;SDS011;5370;50.132;8.626;2023-04-25T08:11:29;11.65;;;6.93;;
10643;SDS011;5370;50.132;8.626;2023-04-25T08:13:54;3.10;;;2.30;;
10643;SDS011;5370;50.132;8.626;2023-04-25T08:16:20;5.00;;;3.67;;
10643;SDS011;5370;50.132;8.626;2023-04-25T08:18:46;3.17;;;2.50;;
10643;SDS011;5370;50.132;8.626;2023-04-25T08:21:12;2.30;;;1.65;;
10643;SDS011;5370;50.132;8.626;2023-04-25T08:23:38;3.60;;;2.53;;
10643;SDS011;5370;50.132;8.626;2023-04-25T08:26:04;4.47;;;2.50;;
10643;SDS011;5370;50.132;8.626;2023-04-25T08:28:30;2.00;;;1.42;;
10643;SDS011;5370;50.132;8.626;2023-04-25T08:30:56;4.97;;;2.63;;
10643;SDS011;5370;50.132;8.626;2023-04-25T08:33:22;3.60;;;2.58;;
10643;SDS011;5370;50.132;8.626;2023-04-25T08:35:47;1.75;;;1.65;;
10643;SDS011;5370;50.132;8.626;2023-04-25T08:38:13;3.75;;;2.20;;
10643;SDS011;5370;50.132;8.626;2023-04-25T08:40:39;4.00;;;2.80;;
10643;SDS011;5370;50.132;8.626;2023-04-25T08:43:08;5.82;;;2.47;;
10643;SDS011;5370;50.132;8.626;2023-04-25T08:45:36;2.70;;;2.40;;
10643;SDS011;5370;50.132;8.626;2023-04-25T08:48:07;3.30;;;2.70;;
10643;SDS011;5370;50.132;8.626;2023-04-25T08:50:38;4.95;;;2.63;;
10643;SDS011;5370;50.132;8.626;2023-04-25T08:53:31;5.28;;;3.47;;
10643;SDS011;5370;50.132;8.626;2023-04-25T08:55:58;6.70;;;2.90;;
10643;SDS011;5370;50.132;8.626;2023-04-25T08:58:27;5.28;;;3.35;;
10643;SDS011;5370;50.132;8.626;2023-04-25T09:00:53;5.10;;;3.10;;
10643;SDS011;5370;50.132;8.626;2023-04-25T09:03:19;5.93;;;2.70;;
10643;SDS011;5370;50.132;8.626;2023-04-25T09:05:44;6.15;;;3.28;;
10643;SDS011;5370;50.132;8.626;2023-04-25T09:08:10;6.03;;;3.13;;
10643;SDS011;5370;50.132;8.626;2023-04-25T09:10:36;6.45;;;2.92;;
10643;SDS011;5370;50.132;8.626;2023-04-25T09:13:13;3.45;;;2.80;;
10643;SDS011;5370;50.132;8.626;2023-04-25T09:16:01;6.10;;;3.55;;
10643;SDS011;5370;50.132;8.626;2023-04-25T09:18:27;5.93;;;2.92;;
10643;SDS011;5370;50.132;8.626;2023-04-25T09:21:07;7.65;;;3.20;;
10643;SDS011;5370;50.132;8.626;2023-04-25T09:23:44;3.15;;;2.47;;
10643;SDS011;5370;50.132;8.626;2023-04-25T09:26:18;3.67;;;2.90;;
10643;SDS011;5370;50.132;8.626;2023-04-25T09:28:46;4.90;;;3.35;;
10643;SDS011;5370;50.132;8.626;2023-04-25T09:31:21;4.97;;;3.05;;
10643;SDS011;5370;50.132;8.626;2023-04-25T09:33:49;4.22;;;3.83;;
10643;SDS011;5370;50.132;8.626;2023-04-25T09:36:14;3.67;;;3.00;;
10643;SDS011;5370;50.132;8.626;2023-04-25T09:38:41;4.55;;;3.15;;
10643;SDS011;5370;50.132;8.626;2023-04-25T09:41:08;4.47;;;3.05;;
10643;SDS011;5370;50.132;8.626;2023-04-25T09:43:35;3.72;;;2.38;;
10643;SDS011;5370;50.132;8.626;2023-04-25T09:46:01;4.82;;;3.95;;
10643;SDS011;5370;50.132;8.626;2023-04-25T09:48:28;7.05;;;3.65;;
10643;SDS011;5370;50.132;8.626;2023-04-25T09:51:12;4.65;;;3.20;;
10643;SDS011;5370;50.132;8.626;2023-04-25T09:53:39;5.32;;;3.10;;
10643;SDS011;5370;50.132;8.626;2023-04-25T09:56:10;5.53;;;3.17;;
10643;SDS011;5370;50.132;8.626;2023-04-25T09:58:37;4.77;;;2.77;;
10643;SDS011;5370;50.132;8.626;2023-04-25T10:01:05;7.05;;;3.40;;
10643;SDS011;5370;50.132;8.626;2023-04-25T10:03:34;3.85;;;2.90;;
10643;SDS011;5370;50.132;8.626;2023-04-25T10:06:01;3.78;;;3.00;;
10643;SDS011;5370;50.132;8.626;2023-04-25T10:08:33;6.82;;;3.50;;
10643;SDS011;5370;50.132;8.626;2023-04-25T10:11:00;4.63;;;3.13;;
10643;SDS011;5370;50.132;8.626;2023-04-25T10:13:30;5.65;;;3.33;;
10643;SDS011;5370;50.132;8.626;2023-04-25T10:15:57;7.00;;;3.53;;
10643;SDS011;5370;50.132;8.626;2023-04-25T10:18:25;5.63;;;3.47;;
10643;SDS011;5370;50.132;8.626;2023-04-25T10:20:53;7.60;;;3.58;;
10643;SDS011;5370;50.132;8.626;2023-04-25T10:23:20;5.30;;;3.03;;
10643;SDS011;5370;50.132;8.626;2023-04-25T10:25:46;4.72;;;3.42;;
10643;SDS011;5370;50.132;8.626;2023-04-25T10:28:11;7.25;;;4.18;;
10643;SDS011;5370;50.132;8.626;2023-04-25T10:30:37;6.18;;;3.30;;
10643;SDS011;5370;50.132;8.626;2023-04-25T10:33:21;9.98;;;3.92;;
10643;SDS011;5370;50.132;8.626;2023-04-25T10:36:12;6.25;;;3.63;;
10643;SDS011;5370;50.132;8.626;2023-04-25T10:38:39;6.68;;;4.43;;
10643;SDS011;5370;50.132;8.626;2023-04-25T10:41:05;8.20;;;3.33;;
10643;SDS011;5370;50.132;8.626;2023-04-25T10:43:35;5.97;;;3.97;;
10643;SDS011;5370;50.132;8.626;2023-04-25T10:46:12;7.33;;;4.00;;
10643;SDS011;5370;50.132;8.626;2023-04-25T10:48:38;4.57;;;2.60;;
10643;SDS011;5370;50.132;8.626;2023-04-25T10:51:28;6.30;;;3.60;;
10643;SDS011;5370;50.132;8.626;2023-04-25T10:53:58;3.60;;;3.30;;
10643;SDS011;5370;50.132;8.626;2023-04-25T10:56:41;4.07;;;3.60;;
10643;SDS011;5370;50.132;8.626;2023-04-25T10:59:12;6.77;;;3.70;;
10643;SDS011;5370;50.132;8.626;2023-04-25T11:01:49;5.97;;;4.00;;
10643;SDS011;5370;50.132;8.626;2023-04-25T11:04:30;7.73;;;3.43;;
10643;SDS011;5370;50.132;8.626;2023-04-25T11:09:40;4.13;;;3.53;;
10643;SDS011;5370;50.132;8.626;2023-04-25T11:12:09;4.83;;;3.73;;
10643;SDS011;5370;50.132;8.626;2023-04-25T11:14:36;5.50;;;3.33;;
10643;SDS011;5370;50.132;8.626;2023-04-25T11:17:02;5.23;;;3.20;;
10643;SDS011;5370;50.132;8.626;2023-04-25T11:19:28;4.80;;;3.00;;
10643;SDS011;5370;50.132;8.626;2023-04-25T11:21:54;8.70;;;3.40;;
10643;SDS011;5370;50.132;8.626;2023-04-25T11:24:31;6.20;;;3.40;;
10643;SDS011;5370;50.132;8.626;2023-04-25T11:26:58;3.30;;;2.90;;
10643;SDS011;5370;50.132;8.626;2023-04-25T11:29:27;5.80;;;3.20;;
10643;SDS011;5370;50.132;8.626;2023-04-25T11:31:54;3.40;;;2.57;;
10643;SDS011;5370;50.132;8.626;2023-04-25T11:34:23;7.67;;;3.00;;
10643;SDS011;5370;50.132;8.626;2023-04-25T11:36:50;4.40;;;2.80;;
10643;SDS011;5370;50.132;8.626;2023-04-25T11:39:17;7.47;;;2.53;;
10643;SDS011;5370;50.132;8.626;2023-04-25T11:41:44;3.83;;;2.80;;
10643;SDS011;5370;50.132;8.626;2023-04-25T11:44:09;7.70;;;2.50;;
10643;SDS011;5370;50.132;8.626;2023-04-25T11:46:35;5.97;;;2.63;;
10643;SDS011;5370;50.132;8.626;2023-04-25T11:49:00;4.50;;;2.83;;
10643;SDS011;5370;50.132;8.626;2023-04-25T11:51:27;7.88;;;2.83;;
10643;SDS011;5370;50.132;8.626;2023-04-25T11:53:52;5.67;;;2.60;;
10643;SDS011;5370;50.132;8.626;2023-04-25T11:56:18;5.85;;;2.90;;
10643;SDS011;5370;50.132;8.626;2023-04-25T11:58:55;9.30;;;2.65;;
10643;SDS011;5370;50.132;8.626;2023-04-25T12:03:57;5.75;;;3.25;;
10643;SDS011;5370;50.132;8.626;2023-04-25T12:06:27;5.43;;;2.63;;
10643;SDS011;5370;50.132;8.626;2023-04-25T12:09:02;4.28;;;2.55;;
10643;SDS011;5370;50.132;8.626;2023-04-25T12:11:32;5.32;;;2.75;;
10643;SDS011;5370;50.132;8.626;2023-04-25T12:14:06;7.53;;;2.57;;
10643;SDS011;5370;50.132;8.626;2023-04-25T12:16:44;10.90;;;3.10;;
10643;SDS011;5370;50.132;8.626;2023-04-25T12:19:14;6.57;;;2.97;;
10643;SDS011;5370;50.132;8.626;2023-04-25T12:21:40;5.13;;;2.77;;
10643;SDS011;5370;50.132;8.626;2023-04-25T12:24:10;4.03;;;2.60;;
10643;SDS011;5370;50.132;8.626;2023-04-25T12:26:48;6.63;;;3.13;;
10643;SDS011;5370;50.132;8.626;2023-04-25T12:29:21;6.67;;;2.93;;
10643;SDS011;5370;50.132;8.626;2023-04-25T12:31:48;10.40;;;3.07;;
10643;SDS011;5370;50.132;8.626;2023-04-25T12:34:16;7.70;;;2.90;;
10643;SDS011;5370;50.132;8.626;2023-04-25T12:36:42;6.17;;;3.20;;
10643;SDS011;5370;50.132;8.626;2023-04-25T12:39:07;9.07;;;3.60;;
10643;SDS011;5370;50.132;8.626;2023-04-25T12:41:33;9.47;;;3.17;;
10643;SDS011;5370;50.132;8.626;2023-04-25T12:43:58;3.97;;;2.90;;
10643;SDS011;5370;50.132;8.626;2023-04-25T12:46:24;7.20;;;2.73;;
10643;SDS011;5370;50.132;8.626;2023-04-25T12:48:50;7.53;;;3.10;;
10643;SDS011;5370;50.132;8.626;2023-04-25T12:51:15;6.97;;;3.10;;
10643;SDS011;5370;50.132;8.626;2023-04-25T12:53:41;4.03;;;2.27;;
10643;SDS011;5370;50.132;8.626;2023-04-25T12:56:07;6.63;;;2.50;;
10643;SDS011;5370;50.132;8.626;2023-04-25T12:58:33;3.33;;;2.40;;
10643;SDS011;5370;50.132;8.626;2023-04-25T13:00:59;4.90;;;2.97;;
10643;SDS011;5370;50.132;8.626;2023-04-25T13:03:24;7.05;;;2.65;;
10643;SDS011;5370;50.132;8.626;2023-04-25T13:05:50;5.50;;;2.30;;
10643;SDS011;5370;50.132;8.626;2023-04-25T13:08:17;5.88;;;2.70;;
10643;SDS011;5370;50.132;8.626;2023-04-25T13:10:43;5.18;;;2.75;;
10643;SDS011;5370;50.132;8.626;2023-04-25T13:13:09;4.40;;;2.45;;
10643;SDS011;5370;50.132;8.626;2023-04-25T13:15:35;6.72;;;2.70;;
10643;SDS011;5370;50.132;8.626;2023-04-25T13:18:01;7.82;;;2.90;;
10643;SDS011;5370;50.132;8.626;2023-04-25T13:20:28;6.07;;;2.95;;
10643;SDS011;5370;50.132;8.626;2023-04-25T13:22:53;4.18;;;2.55;;
10643;SDS011;5370;50.132;8.626;2023-04-25T13:25:19;5.22;;;3.15;;
10643;SDS011;5370;50.132;8.626;2023-04-25T13:27:44;5.07;;;3.00;;
10643;SDS011;5370;50.132;8.626;2023-04-25T13:30:11;10.77;;;2.90;;
10643;SDS011;5370;50.132;8.626;2023-04-25T13:32:37;4.75;;;3.10;;
10643;SDS011;5370;50.132;8.626;2023-04-25T13:35:04;4.40;;;3.05;;
10643;SDS011;5370;50.132;8.626;2023-04-25T13:37:30;7.82;;;3.47;;
10643;SDS011;5370;50.132;8.626;2023-04-25T13:39:58;7.47;;;3.10;;
10643;SDS011;5370;50.132;8.626;2023-04-25T13:42:25;4.90;;;2.78;;
10643;SDS011;5370;50.132;8.626;2023-04-25T13:44:51;8.68;;;2.70;;
10643;SDS011;5370;50.132;8.626;2023-04-25T13:47:16;6.63;;;3.58;;
10643;SDS011;5370;50.132;8.626;2023-04-25T13:49:42;4.93;;;3.30;;
10643;SDS011;5370;50.132;8.626;2023-04-25T13:52:07;6.20;;;2.50;;
10643;SDS011;5370;50.132;8.626;2023-04-25T13:54:33;5.85;;;2.53;;
10643;SDS011;5370;50.132;8.626;2023-04-25T13:56:59;8.35;;;3.40;;
10643;SDS011;5370;50.132;8.626;2023-04-25T13:59:25;7.18;;;2.50;;
10643;SDS011;5370;50.132;8.626;2023-04-25T14:01:50;6.93;;;3.13;;
10643;SDS011;5370;50.132;8.626;2023-04-25T14:04:16;7.20;;;2.58;;
10643;SDS011;5370;50.132;8.626;2023-04-25T14:06:42;6.93;;;2.30;;
10643;SDS011;5370;50.132;8.626;2023-04-25T14:09:08;4.85;;;2.30;;
10643;SDS011;5370;50.132;8.626;2023-04-25T14:11:38;6.72;;;2.85;;
10643;SDS011;5370;50.132;8.626;2023-04-25T14:14:04;6.13;;;2.30;;
10643;SDS011;5370;50.132;8.626;2023-04-25T14:16:30;6.50;;;2.75;;
10643;SDS011;5370;50.132;8.626;2023-04-25T14:18:57;14.77;;;2.72;;
10643;SDS011;5370;50.132;8.626;2023-04-25T14:21:23;5.15;;;2.40;;
10643;SDS011;5370;50.132;8.626;2023-04-25T14:23:49;6.85;;;2.65;;
10643;SDS011;5370;50.132;8.626;2023-04-25T14:26:14;6.07;;;2.33;;
10643;SDS011;5370;50.132;8.626;2023-04-25T14:28:41;2.65;;;1.60;;
10643;SDS011;5370;50.132;8.626;2023-04-25T14:31:06;3.05;;;1.88;;
10643;SDS011;5370;50.132;8.626;2023-04-25T14:33:32;3.37;;;1.80;;
10643;SDS011;5370;50.132;8.626;2023-04-25T14:35:58;3.67;;;1.80;;
10643;SDS011;5370;50.132;8.626;2023-04-25T14:38:24;6.13;;;2.30;;
10643;SDS011;5370;50.132;8.626;2023-04-25T14:40:50;2.83;;;1.83;;
10643;SDS011;5370;50.132;8.626;2023-04-25T14:43:16;4.60;;;2.30;;
10643;SDS011;5370;50.132;8.626;2023-04-25T14:45:42;5.80;;;2.00;;
10643;SDS011;5370;50.132;8.626;2023-04-25T14:48:08;5.53;;;1.90;;
10643;SDS011;5370;50.132;8.626;2023-04-25T14:50:33;4.23;;;1.60;;
10643;SDS011;5370;50.132;8.626;2023-04-25T14:52:59;4.17;;;1.90;;
10643;SDS011;5370;50.132;8.626;2023-04-25T14:55:28;4.27;;;1.90;;
10643;SDS011;5370;50.132;8.626;2023-04-25T14:57:54;4.67;;;1.80;;
10643;SDS011;5370;50.132;8.626;2023-04-25T15:00:20;4.60;;;2.13;;
10643;SDS011;5370;50.132;8.626;2023-04-25T15:02:46;8.87;;;2.10;;